sensor_id;sensor_type;location;lat;lon;timestamp;temperature;humidity
9845;DHT22;4961;50.782;6.080;2022-10-03T00:02:04;12.00;99.90
9845;DHT22;4961;50.782;6.080;2022-10-03T00:04:51;12.00;99.90
9845;DHT22;4961;50.782;6.080;2022-10-03T00:07:44;12.00;99.90
9845;DHT22;4961;50.782;6.080;2022-10-03T00:10:21;12.00;99.90
9845;DHT22;4961;50.782;6.080;2022-10-03T00:13:11;11.90;99.90
9845;DHT22;4961;50.782;6.080;2022-10-03T00:15:45;11.90;99.90
9845;DHT22;4961;50.782;6.080;2022-10-03T00:18:28;11.90;99.90
9845;DHT22;4961;50.782;6.080;2022-10-03T00:21:08;11.90;99.90
9845;DHT22;4961;50.782;6.080;2022-10-03T00:23:45;11.90;99.90
9845;DHT22;4961;50.782;6.080;2022-10-03T00:26:21;11.80;99.90
9845;DHT22;4961;50.782;6.080;2022-10-03T00:29:11;11.80;99.90
9845;DHT22;4961;50.782;6.080;2022-10-03T00:31:54;11.80;99.90
9845;DHT22;4961;50.782;6.080;2022-10-03T00:34:32;11.80;99.90
9845;DHT22;4961;50.782;6.080;2022-10-03T00:37:22;11.80;99.90
9845;DHT22;4961;50.782;6.080;2022-10-03T00:40:18;11.80;99.90
9845;DHT22;4961;50.782;6.080;2022-10-03T00:43:16;11.80;99.90
9845;DHT22;4961;50.782;6.080;2022-10-03T00:46:18;11.90;99.90
9845;DHT22;4961;50.782;6.080;2022-10-03T00:52:37;11.80;99.90
9845;DHT22;4961;50.782;6.080;2022-10-03T00:55:17;11.80;99.90
9845;DHT22;4961;50.782;6.080;2022-10-03T01:00:49;11.80;99.90
9845;DHT22;4961;50.782;6.080;2022-10-03T01:03:35;11.80;99.90
9845;DHT22;4961;50.782;6.080;2022-10-03T01:06:16;11.80;99.90
9845;DHT22;4961;50.782;6.080;2022-10-03T01:09:10;11.70;99.90
9845;DHT22;4961;50.782;6.080;2022-10-03T01:11:53;11.60;99.90
9845;DHT22;4961;50.782;6.080;2022-10-03T01:14:43;11.60;99.90
9845;DHT22;4961;50.782;6.080;2022-10-03T01:17:23;11.70;99.90
9845;DHT22;4961;50.782;6.080;2022-10-03T01:20:05;11.60;99.90
9845;DHT22;4961;50.782;6.080;2022-10-03T01:25:38;11.60;99.90
9845;DHT22;4961;50.782;6.080;2022-10-03T01:28:36;11.60;99.90
9845;DHT22;4961;50.782;6.080;2022-10-03T01:31:29;11.60;99.90
9845;DHT22;4961;50.782;6.080;2022-10-03T01:34:05;11.50;99.90
9845;DHT22;4961;50.782;6.080;2022-10-03T01:36:39;11.50;99.90
9845;DHT22;4961;50.782;6.080;2022-10-03T01:39:14;11.50;99.90
9845;DHT22;4961;50.782;6.080;2022-10-03T01:41:53;11.50;99.90
9845;DHT22;4961;50.782;6.080;2022-10-03T01:44:35;11.40;99.90
9845;DHT22;4961;50.782;6.080;2022-10-03T01:47:16;11.40;99.90
9845;DHT22;4961;50.782;6.080;2022-10-03T01:49:52;11.40;99.90
9845;DHT22;4961;50.782;6.080;2022-10-03T01:52:27;11.40;99.90
9845;DHT22;4961;50.782;6.080;2022-10-03T01:55:01;11.40;99.90
9845;DHT22;4961;50.782;6.080;2022-10-03T01:57:37;11.40;99.90
9845;DHT22;4961;50.782;6.080;2022-10-03T02:00:11;11.40;99.90
9845;DHT22;4961;50.782;6.080;2022-10-03T02:02:44;11.40;99.90
9845;DHT22;4961;50.782;6.080;2022-10-03T02:05:18;11.40;99.90
9845;DHT22;4961;50.782;6.080;2022-10-03T02:07:54;11.40;99.90
9845;DHT22;4961;50.782;6.080;2022-10-03T02:10:34;11.40;99.90
9845;DHT22;4961;50.782;6.080;2022-10-03T02:13:11;11.40;99.90
9845;DHT22;4961;50.782;6.080;2022-10-03T02:15:54;11.40;99.90
9845;DHT22;4961;50.782;6.080;2022-10-03T02:18:28;11.30;99.90
9845;DHT22;4961;50.782;6.080;2022-10-03T02:21:08;11.30;99.90
9845;DHT22;4961;50.782;6.080;2022-10-03T02:23:39;11.30;99.90
9845;DHT22;4961;50.782;6.080;2022-10-03T02:29:57;11.20;99.90
9845;DHT22;4961;50.782;6.080;2022-10-03T02:38:57;11.20;99.90
9845;DHT22;4961;50.782;6.080;2022-10-03T02:41:47;11.20;99.90
9845;DHT22;4961;50.782;6.080;2022-10-03T02:44:45;11.30;99.90
9845;DHT22;4961;50.782;6.080;2022-10-03T02:47:39;11.20;99.90
9845;DHT22;4961;50.782;6.080;2022-10-03T02:50:43;11.30;99.90
9845;DHT22;4961;50.782;6.080;2022-10-03T02:53:35;11.30;99.90
9845;DHT22;4961;50.782;6.080;2022-10-03T03:02:24;11.40;99.90
9845;DHT22;4961;50.782;6.080;2022-10-03T03:11:25;11.50;99.90
9845;DHT22;4961;50.782;6.080;2022-10-03T03:17:08;11.50;99.90
9845;DHT22;4961;50.782;6.080;2022-10-03T03:19:57;11.50;99.90
9845;DHT22;4961;50.782;6.080;2022-10-03T03:22:39;11.50;99.90
9845;DHT22;4961;50.782;6.080;2022-10-03T03:25:32;11.60;99.90
9845;DHT22;4961;50.782;6.080;2022-10-03T03:28:16;11.60;99.90
9845;DHT22;4961;50.782;6.080;2022-10-03T03:30:54;11.60;99.90
9845;DHT22;4961;50.782;6.080;2022-10-03T03:33:31;11.60;99.90
9845;DHT22;4961;50.782;6.080;2022-10-03T03:36:10;11.60;99.90
9845;DHT22;4961;50.782;6.080;2022-10-03T03:38:50;11.60;99.90
9845;DHT22;4961;50.782;6.080;2022-10-03T03:41:34;11.60;99.90
9845;DHT22;4961;50.782;6.080;2022-10-03T03:44:21;11.60;99.90
9845;DHT22;4961;50.782;6.080;2022-10-03T03:47:08;11.70;99.90
9845;DHT22;4961;50.782;6.080;2022-10-03T03:49:56;11.60;99.90
9845;DHT22;4961;50.782;6.080;2022-10-03T03:52:42;11.70;99.90
9845;DHT22;4961;50.782;6.080;2022-10-03T03:55:26;11.60;99.90
9845;DHT22;4961;50.782;6.080;2022-10-03T03:58:07;11.60;99.90
9845;DHT22;4961;50.782;6.080;2022-10-03T04:00:58;11.70;99.90
9845;DHT22;4961;50.782;6.080;2022-10-03T04:03:41;11.60;99.90
9845;DHT22;4961;50.782;6.080;2022-10-03T04:06:25;11.60;99.90
9845;DHT22;4961;50.782;6.080;2022-10-03T04:12:03;11.70;99.90
9845;DHT22;4961;50.782;6.080;2022-10-03T04:17:52;11.70;99.90
9845;DHT22;4961;50.782;6.080;2022-10-03T04:21:00;11.70;99.90
9845;DHT22;4961;50.782;6.080;2022-10-03T04:23:41;11.70;99.90
9845;DHT22;4961;50.782;6.080;2022-10-03T04:26:37;11.60;99.90
9845;DHT22;4961;50.782;6.080;2022-10-03T04:29:24;11.60;99.90
9845;DHT22;4961;50.782;6.080;2022-10-03T04:32:07;11.60;99.90
9845;DHT22;4961;50.782;6.080;2022-10-03T04:34:52;11.60;99.90
9845;DHT22;4961;50.782;6.080;2022-10-03T04:37:33;11.60;99.90
9845;DHT22;4961;50.782;6.080;2022-10-03T04:40:23;11.50;99.90
9845;DHT22;4961;50.782;6.080;2022-10-03T04:43:02;11.50;99.90
9845;DHT22;4961;50.782;6.080;2022-10-03T04:45:39;11.50;99.90
9845;DHT22;4961;50.782;6.080;2022-10-03T04:48:14;11.40;99.90
9845;DHT22;4961;50.782;6.080;2022-10-03T04:50:56;11.40;99.90
9845;DHT22;4961;50.782;6.080;2022-10-03T04:53:39;11.40;99.90
9845;DHT22;4961;50.782;6.080;2022-10-03T04:56:33;11.40;99.90
9845;DHT22;4961;50.782;6.080;2022-10-03T04:59:21;11.30;99.90
9845;DHT22;4961;50.782;6.080;2022-10-03T05:01:54;11.30;99.90
9845;DHT22;4961;50.782;6.080;2022-10-03T05:04:35;11.30;99.90
9845;DHT22;4961;50.782;6.080;2022-10-03T05:07:15;11.20;99.90
9845;DHT22;4961;50.782;6.080;2022-10-03T05:09:52;11.30;99.90
9845;DHT22;4961;50.782;6.080;2022-10-03T05:12:30;11.20;99.90
9845;DHT22;4961;50.782;6.080;2022-10-03T05:15:13;11.20;99.90
9845;DHT22;4961;50.782;6.080;2022-10-03T05:17:50;11.20;99.90
9845;DHT22;4961;50.782;6.080;2022-10-03T05:20:43;11.30;99.90
9845;DHT22;4961;50.782;6.080;2022-10-03T05:23:23;11.20;99.90
9845;DHT22;4961;50.782;6.080;2022-10-03T05:26:03;11.30;99.90
9845;DHT22;4961;50.782;6.080;2022-10-03T05:29:02;11.30;99.90
9845;DHT22;4961;50.782;6.080;2022-10-03T05:31:47;11.30;99.90
9845;DHT22;4961;50.782;6.080;2022-10-03T05:34:27;11.40;99.90
9845;DHT22;4961;50.782;6.080;2022-10-03T05:37:27;11.40;99.90
9845;DHT22;4961;50.782;6.080;2022-10-03T05:39:59;11.40;99.90
9845;DHT22;4961;50.782;6.080;2022-10-03T05:42:36;11.40;99.90
9845;DHT22;4961;50.782;6.080;2022-10-03T05:45:21;11.40;99.90
9845;DHT22;4961;50.782;6.080;2022-10-03T05:47:52;11.50;99.90
9845;DHT22;4961;50.782;6.080;2022-10-03T05:50:48;11.50;99.90
9845;DHT22;4961;50.782;6.080;2022-10-03T05:54:02;11.50;99.90
9845;DHT22;4961;50.782;6.080;2022-10-03T05:56:57;11.50;99.90
9845;DHT22;4961;50.782;6.080;2022-10-03T06:00:10;11.50;99.90
9845;DHT22;4961;50.782;6.080;2022-10-03T06:03:08;11.50;99.90
9845;DHT22;4961;50.782;6.080;2022-10-03T06:05:52;11.50;99.90
9845;DHT22;4961;50.782;6.080;2022-10-03T06:08:57;11.50;99.90
9845;DHT22;4961;50.782;6.080;2022-10-03T06:15:24;11.60;99.90
9845;DHT22;4961;50.782;6.080;2022-10-03T06:18:01;11.60;99.90
9845;DHT22;4961;50.782;6.080;2022-10-03T06:20:59;11.70;99.90
9845;DHT22;4961;50.782;6.080;2022-10-03T06:23:52;11.70;99.90
9845;DHT22;4961;50.782;6.080;2022-10-03T06:26:56;11.70;99.90
9845;DHT22;4961;50.782;6.080;2022-10-03T06:29:54;11.80;99.90
9845;DHT22;4961;50.782;6.080;2022-10-03T06:42:19;12.00;99.90
9845;DHT22;4961;50.782;6.080;2022-10-03T06:45:19;12.00;99.90
9845;DHT22;4961;50.782;6.080;2022-10-03T06:48:34;12.10;99.90
9845;DHT22;4961;50.782;6.080;2022-10-03T06:51:30;12.20;99.90
9845;DHT22;4961;50.782;6.080;2022-10-03T06:57:41;12.20;99.90
9845;DHT22;4961;50.782;6.080;2022-10-03T07:00:18;12.30;99.90
9845;DHT22;4961;50.782;6.080;2022-10-03T07:06:47;12.40;99.90
9845;DHT22;4961;50.782;6.080;2022-10-03T07:12:56;12.50;99.90
9845;DHT22;4961;50.782;6.080;2022-10-03T07:15:46;12.60;99.90
9845;DHT22;4961;50.782;6.080;2022-10-03T07:25:58;12.70;99.90
9845;DHT22;4961;50.782;6.080;2022-10-03T07:29:18;12.80;99.90
9845;DHT22;4961;50.782;6.080;2022-10-03T07:32:16;12.90;99.90
9845;DHT22;4961;50.782;6.080;2022-10-03T07:38:48;13.00;99.90
9845;DHT22;4961;50.782;6.080;2022-10-03T07:41:51;13.10;99.90
9845;DHT22;4961;50.782;6.080;2022-10-03T07:45:01;13.20;99.90
9845;DHT22;4961;50.782;6.080;2022-10-03T07:50:48;13.40;99.90
9845;DHT22;4961;50.782;6.080;2022-10-03T07:57:06;13.60;99.90
9845;DHT22;4961;50.782;6.080;2022-10-03T07:59:55;13.70;99.90
9845;DHT22;4961;50.782;6.080;2022-10-03T08:02:45;13.80;99.90
9845;DHT22;4961;50.782;6.080;2022-10-03T08:05:23;13.90;99.90
9845;DHT22;4961;50.782;6.080;2022-10-03T08:11:25;14.00;99.90
9845;DHT22;4961;50.782;6.080;2022-10-03T08:14:18;14.10;99.90
9845;DHT22;4961;50.782;6.080;2022-10-03T08:20:19;14.10;99.90
9845;DHT22;4961;50.782;6.080;2022-10-03T08:23:04;14.20;99.90
9845;DHT22;4961;50.782;6.080;2022-10-03T08:25:53;14.30;99.90
9845;DHT22;4961;50.782;6.080;2022-10-03T08:28:52;14.40;99.90
9845;DHT22;4961;50.782;6.080;2022-10-03T08:44:35;14.60;99.90
9845;DHT22;4961;50.782;6.080;2022-10-03T08:50:34;14.80;99.90
9845;DHT22;4961;50.782;6.080;2022-10-03T08:53:38;14.90;99.90
9845;DHT22;4961;50.782;6.080;2022-10-03T08:56:17;15.00;99.90
9845;DHT22;4961;50.782;6.080;2022-10-03T08:59:12;15.10;99.90
9845;DHT22;4961;50.782;6.080;2022-10-03T09:05:42;15.30;99.90
9845;DHT22;4961;50.782;6.080;2022-10-03T09:08:53;15.40;99.90
9845;DHT22;4961;50.782;6.080;2022-10-03T09:18:01;15.90;99.90
9845;DHT22;4961;50.782;6.080;2022-10-03T09:21:10;16.50;99.90
9845;DHT22;4961;50.782;6.080;2022-10-03T09:24:18;17.20;99.90
9845;DHT22;4961;50.782;6.080;2022-10-03T09:27:18;17.80;99.90
9845;DHT22;4961;50.782;6.080;2022-10-03T09:30:15;18.20;99.90
9845;DHT22;4961;50.782;6.080;2022-10-03T09:33:17;18.60;99.90
9845;DHT22;4961;50.782;6.080;2022-10-03T09:36:01;18.70;99.90
9845;DHT22;4961;50.782;6.080;2022-10-03T09:38:46;18.60;99.90
9845;DHT22;4961;50.782;6.080;2022-10-03T09:44:27;18.30;99.90
9845;DHT22;4961;50.782;6.080;2022-10-03T09:50:19;18.10;99.90
9845;DHT22;4961;50.782;6.080;2022-10-03T09:56:20;17.50;99.90
9845;DHT22;4961;50.782;6.080;2022-10-03T10:02:06;17.10;99.90
9845;DHT22;4961;50.782;6.080;2022-10-03T10:08:08;18.20;99.90
9845;DHT22;4961;50.782;6.080;2022-10-03T10:17:35;18.80;99.90
9845;DHT22;4961;50.782;6.080;2022-10-03T10:20:26;18.40;99.90
9845;DHT22;4961;50.782;6.080;2022-10-03T10:23:23;18.00;99.90
9845;DHT22;4961;50.782;6.080;2022-10-03T10:26:26;17.70;99.90
9845;DHT22;4961;50.782;6.080;2022-10-03T10:29:19;17.70;99.90
9845;DHT22;4961;50.782;6.080;2022-10-03T10:35:21;18.90;99.90
9845;DHT22;4961;50.782;6.080;2022-10-03T10:38:13;19.60;99.90
9845;DHT22;4961;50.782;6.080;2022-10-03T10:44:40;20.50;99.90
9845;DHT22;4961;50.782;6.080;2022-10-03T10:47:53;20.50;99.90
9845;DHT22;4961;50.782;6.080;2022-10-03T10:57:15;18.90;99.90
9845;DHT22;4961;50.782;6.080;2022-10-03T11:00:15;18.50;99.90
9845;DHT22;4961;50.782;6.080;2022-10-03T11:06:39;18.20;99.90
9845;DHT22;4961;50.782;6.080;2022-10-03T11:09:45;18.50;99.90
9845;DHT22;4961;50.782;6.080;2022-10-03T11:16:21;19.20;99.90
9845;DHT22;4961;50.782;6.080;2022-10-03T11:22:51;19.30;99.90
9845;DHT22;4961;50.782;6.080;2022-10-03T11:26:00;19.60;99.90
9845;DHT22;4961;50.782;6.080;2022-10-03T11:38:15;20.00;99.90
9845;DHT22;4961;50.782;6.080;2022-10-03T11:40:56;19.70;99.90
9845;DHT22;4961;50.782;6.080;2022-10-03T11:43:53;19.60;99.90
9845;DHT22;4961;50.782;6.080;2022-10-03T11:49:49;19.50;99.90
9845;DHT22;4961;50.782;6.080;2022-10-03T11:52:26;19.30;99.90
9845;DHT22;4961;50.782;6.080;2022-10-03T11:55:06;19.20;99.90
9845;DHT22;4961;50.782;6.080;2022-10-03T11:57:43;19.20;99.90
9845;DHT22;4961;50.782;6.080;2022-10-03T12:00:16;19.20;99.90
9845;DHT22;4961;50.782;6.080;2022-10-03T12:03:09;19.10;99.90
9845;DHT22;4961;50.782;6.080;2022-10-03T12:05:58;19.20;99.90
9845;DHT22;4961;50.782;6.080;2022-10-03T12:08:43;19.00;99.90
9845;DHT22;4961;50.782;6.080;2022-10-03T12:11:26;18.90;99.90
9845;DHT22;4961;50.782;6.080;2022-10-03T12:14:21;18.70;99.90
9845;DHT22;4961;50.782;6.080;2022-10-03T12:17:04;18.50;99.90
9845;DHT22;4961;50.782;6.080;2022-10-03T12:19:41;18.40;99.90
9845;DHT22;4961;50.782;6.080;2022-10-03T12:25:17;18.30;99.90
9845;DHT22;4961;50.782;6.080;2022-10-03T12:27:56;18.20;99.90
9845;DHT22;4961;50.782;6.080;2022-10-03T12:30:27;18.20;99.90
9845;DHT22;4961;50.782;6.080;2022-10-03T12:33:21;18.20;99.90
9845;DHT22;4961;50.782;6.080;2022-10-03T12:35:58;18.10;99.90
9845;DHT22;4961;50.782;6.080;2022-10-03T12:38:37;18.00;99.90
9845;DHT22;4961;50.782;6.080;2022-10-03T12:41:23;17.90;99.90
9845;DHT22;4961;50.782;6.080;2022-10-03T12:44:08;17.80;99.90
9845;DHT22;4961;50.782;6.080;2022-10-03T12:46:46;17.80;99.90
9845;DHT22;4961;50.782;6.080;2022-10-03T12:49:18;17.60;99.90
9845;DHT22;4961;50.782;6.080;2022-10-03T12:51:56;17.50;99.90
9845;DHT22;4961;50.782;6.080;2022-10-03T12:54:44;17.50;99.90
9845;DHT22;4961;50.782;6.080;2022-10-03T12:57:47;17.50;99.90
9845;DHT22;4961;50.782;6.080;2022-10-03T13:00:21;17.50;99.90
9845;DHT22;4961;50.782;6.080;2022-10-03T13:03:07;17.60;99.90
9845;DHT22;4961;50.782;6.080;2022-10-03T13:05:59;17.60;99.90
9845;DHT22;4961;50.782;6.080;2022-10-03T13:08:41;17.60;99.90
9845;DHT22;4961;50.782;6.080;2022-10-03T13:11:24;17.60;99.90
9845;DHT22;4961;50.782;6.080;2022-10-03T13:14:06;17.50;99.90
9845;DHT22;4961;50.782;6.080;2022-10-03T13:16:43;17.50;99.90
9845;DHT22;4961;50.782;6.080;2022-10-03T13:19:20;17.50;99.90
9845;DHT22;4961;50.782;6.080;2022-10-03T13:21:56;17.40;99.90
9845;DHT22;4961;50.782;6.080;2022-10-03T13:24:37;17.40;99.90
9845;DHT22;4961;50.782;6.080;2022-10-03T13:27:20;17.50;99.90
9845;DHT22;4961;50.782;6.080;2022-10-03T13:30:02;17.50;99.90
9845;DHT22;4961;50.782;6.080;2022-10-03T13:32:34;17.50;99.90
9845;DHT22;4961;50.782;6.080;2022-10-03T13:35:15;17.60;99.90
9845;DHT22;4961;50.782;6.080;2022-10-03T13:38:16;17.70;99.90
9845;DHT22;4961;50.782;6.080;2022-10-03T13:40:53;17.90;99.90
9845;DHT22;4961;50.782;6.080;2022-10-03T13:43:33;17.90;99.90
9845;DHT22;4961;50.782;6.080;2022-10-03T13:46:09;17.90;99.90
9845;DHT22;4961;50.782;6.080;2022-10-03T13:48:41;18.00;99.90
9845;DHT22;4961;50.782;6.080;2022-10-03T13:51:19;18.00;99.90
9845;DHT22;4961;50.782;6.080;2022-10-03T13:53:56;18.10;99.90
9845;DHT22;4961;50.782;6.080;2022-10-03T13:56:44;18.10;99.90
9845;DHT22;4961;50.782;6.080;2022-10-03T13:59:37;18.10;99.90
9845;DHT22;4961;50.782;6.080;2022-10-03T14:02:22;18.20;99.90
9845;DHT22;4961;50.782;6.080;2022-10-03T14:05:05;18.30;99.90
9845;DHT22;4961;50.782;6.080;2022-10-03T14:07:43;18.30;99.90
9845;DHT22;4961;50.782;6.080;2022-10-03T14:10:24;18.50;99.90
9845;DHT22;4961;50.782;6.080;2022-10-03T14:13:08;18.50;99.90
9845;DHT22;4961;50.782;6.080;2022-10-03T14:15:50;18.40;99.90
9845;DHT22;4961;50.782;6.080;2022-10-03T14:18:34;18.30;99.90
9845;DHT22;4961;50.782;6.080;2022-10-03T14:21:29;18.20;99.90
9845;DHT22;4961;50.782;6.080;2022-10-03T14:24:07;18.00;99.90
9845;DHT22;4961;50.782;6.080;2022-10-03T14:26:44;17.90;99.90
9845;DHT22;4961;50.782;6.080;2022-10-03T14:29:21;17.80;99.90
9845;DHT22;4961;50.782;6.080;2022-10-03T14:31:56;17.70;99.90
9845;DHT22;4961;50.782;6.080;2022-10-03T14:34:37;17.60;99.90
9845;DHT22;4961;50.782;6.080;2022-10-03T14:37:18;17.70;99.90
9845;DHT22;4961;50.782;6.080;2022-10-03T14:40:00;17.70;99.90
9845;DHT22;4961;50.782;6.080;2022-10-03T14:42:45;17.80;99.90
9845;DHT22;4961;50.782;6.080;2022-10-03T14:45:20;17.90;99.90
9845;DHT22;4961;50.782;6.080;2022-10-03T14:47:55;18.00;99.90
9845;DHT22;4961;50.782;6.080;2022-10-03T14:50:27;17.90;99.90
9845;DHT22;4961;50.782;6.080;2022-10-03T14:53:00;17.90;99.90
9845;DHT22;4961;50.782;6.080;2022-10-03T14:55:36;17.80;99.90
9845;DHT22;4961;50.782;6.080;2022-10-03T14:58:15;17.80;99.90
9845;DHT22;4961;50.782;6.080;2022-10-03T15:00:45;17.80;99.90
9845;DHT22;4961;50.782;6.080;2022-10-03T15:03:32;17.70;99.90
9845;DHT22;4961;50.782;6.080;2022-10-03T15:06:20;17.70;99.90
9845;DHT22;4961;50.782;6.080;2022-10-03T15:08:52;17.70;99.90
9845;DHT22;4961;50.782;6.080;2022-10-03T15:11:29;17.60;99.90
9845;DHT22;4961;50.782;6.080;2022-10-03T15:14:01;17.60;99.90
9845;DHT22;4961;50.782;6.080;2022-10-03T15:16:34;17.60;99.90
9845;DHT22;4961;50.782;6.080;2022-10-03T15:19:08;17.50;99.90
9845;DHT22;4961;50.782;6.080;2022-10-03T15:21:42;17.40;99.90
9845;DHT22;4961;50.782;6.080;2022-10-03T15:24:21;17.40;99.90
9845;DHT22;4961;50.782;6.080;2022-10-03T15:26:56;17.40;99.90
9845;DHT22;4961;50.782;6.080;2022-10-03T15:29:28;17.30;99.90
9845;DHT22;4961;50.782;6.080;2022-10-03T15:31:59;17.20;99.90
9845;DHT22;4961;50.782;6.080;2022-10-03T15:34:31;17.20;99.90
9845;DHT22;4961;50.782;6.080;2022-10-03T15:37:04;17.10;99.90
9845;DHT22;4961;50.782;6.080;2022-10-03T15:39:39;17.10;99.90
9845;DHT22;4961;50.782;6.080;2022-10-03T15:42:20;17.00;99.90
9845;DHT22;4961;50.782;6.080;2022-10-03T15:44:53;17.00;99.90
9845;DHT22;4961;50.782;6.080;2022-10-03T15:47:25;17.00;99.90
9845;DHT22;4961;50.782;6.080;2022-10-03T15:49:57;17.00;99.90
9845;DHT22;4961;50.782;6.080;2022-10-03T15:52:34;16.90;99.90
9845;DHT22;4961;50.782;6.080;2022-10-03T15:55:14;16.90;99.90
9845;DHT22;4961;50.782;6.080;2022-10-03T15:57:49;16.80;99.90
9845;DHT22;4961;50.782;6.080;2022-10-03T16:00:21;16.80;99.90
9845;DHT22;4961;50.782;6.080;2022-10-03T16:02:58;16.80;99.90
9845;DHT22;4961;50.782;6.080;2022-10-03T16:05:28;16.80;99.90
9845;DHT22;4961;50.782;6.080;2022-10-03T16:08:02;16.70;99.90
9845;DHT22;4961;50.782;6.080;2022-10-03T16:10:35;16.60;99.90
9845;DHT22;4961;50.782;6.080;2022-10-03T16:13:17;16.60;99.90
9845;DHT22;4961;50.782;6.080;2022-10-03T16:16:07;16.60;99.90
9845;DHT22;4961;50.782;6.080;2022-10-03T16:18:50;16.50;99.90
9845;DHT22;4961;50.782;6.080;2022-10-03T16:21:38;16.50;99.90
9845;DHT22;4961;50.782;6.080;2022-10-03T16:24:17;16.50;99.90
9845;DHT22;4961;50.782;6.080;2022-10-03T16:26:53;16.40;99.90
9845;DHT22;4961;50.782;6.080;2022-10-03T16:29:25;16.40;99.90
9845;DHT22;4961;50.782;6.080;2022-10-03T16:32:02;16.30;99.90
9845;DHT22;4961;50.782;6.080;2022-10-03T16:34:42;16.30;99.90
9845;DHT22;4961;50.782;6.080;2022-10-03T16:37:19;16.30;99.90
9845;DHT22;4961;50.782;6.080;2022-10-03T16:39:54;16.30;99.90
9845;DHT22;4961;50.782;6.080;2022-10-03T16:42:34;16.20;99.90
9845;DHT22;4961;50.782;6.080;2022-10-03T16:45:18;16.20;99.90
9845;DHT22;4961;50.782;6.080;2022-10-03T16:47:48;16.10;99.90
9845;DHT22;4961;50.782;6.080;2022-10-03T16:50:42;16.10;99.90
9845;DHT22;4961;50.782;6.080;2022-10-03T16:53:13;16.00;99.90
9845;DHT22;4961;50.782;6.080;2022-10-03T17:02:21;15.80;99.90
9845;DHT22;4961;50.782;6.080;2022-10-03T17:04:53;15.70;99.90
9845;DHT22;4961;50.782;6.080;2022-10-03T17:07:24;15.70;99.90
9845;DHT22;4961;50.782;6.080;2022-10-03T17:09:56;15.60;99.90
9845;DHT22;4961;50.782;6.080;2022-10-03T17:12:27;15.60;99.90
9845;DHT22;4961;50.782;6.080;2022-10-03T17:15:03;15.50;99.90
9845;DHT22;4961;50.782;6.080;2022-10-03T17:17:40;15.40;99.90
9845;DHT22;4961;50.782;6.080;2022-10-03T17:20:15;15.40;99.90
9845;DHT22;4961;50.782;6.080;2022-10-03T17:22:51;15.30;99.90
9845;DHT22;4961;50.782;6.080;2022-10-03T17:25:36;15.20;99.90
9845;DHT22;4961;50.782;6.080;2022-10-03T17:28:13;15.20;99.90
9845;DHT22;4961;50.782;6.080;2022-10-03T17:30:46;15.20;99.90
9845;DHT22;4961;50.782;6.080;2022-10-03T17:33:23;15.20;99.90
9845;DHT22;4961;50.782;6.080;2022-10-03T17:36:01;15.10;99.90
9845;DHT22;4961;50.782;6.080;2022-10-03T17:38:40;15.00;99.90
9845;DHT22;4961;50.782;6.080;2022-10-03T17:41:20;14.90;99.90
9845;DHT22;4961;50.782;6.080;2022-10-03T17:43:58;14.90;99.90
9845;DHT22;4961;50.782;6.080;2022-10-03T17:46:38;14.80;99.90
9845;DHT22;4961;50.782;6.080;2022-10-03T17:49:18;14.80;99.90
9845;DHT22;4961;50.782;6.080;2022-10-03T17:51:49;14.70;99.90
9845;DHT22;4961;50.782;6.080;2022-10-03T17:54:20;14.60;99.90
9845;DHT22;4961;50.782;6.080;2022-10-03T17:56:52;14.60;99.90
9845;DHT22;4961;50.782;6.080;2022-10-03T17:59:25;14.60;99.90
9845;DHT22;4961;50.782;6.080;2022-10-03T18:01:56;14.50;99.90
9845;DHT22;4961;50.782;6.080;2022-10-03T18:04:31;14.50;99.90
9845;DHT22;4961;50.782;6.080;2022-10-03T18:07:04;14.50;99.90
9845;DHT22;4961;50.782;6.080;2022-10-03T18:09:41;14.40;99.90
9845;DHT22;4961;50.782;6.080;2022-10-03T18:12:18;14.40;99.90
9845;DHT22;4961;50.782;6.080;2022-10-03T18:18:22;14.30;99.90
9845;DHT22;4961;50.782;6.080;2022-10-03T18:21:09;14.20;99.90
9845;DHT22;4961;50.782;6.080;2022-10-03T18:23:50;14.10;99.90
9845;DHT22;4961;50.782;6.080;2022-10-03T18:26:27;14.10;99.90
9845;DHT22;4961;50.782;6.080;2022-10-03T18:29:06;14.00;99.90
9845;DHT22;4961;50.782;6.080;2022-10-03T18:31:40;14.00;99.90
9845;DHT22;4961;50.782;6.080;2022-10-03T18:34:17;14.00;99.90
9845;DHT22;4961;50.782;6.080;2022-10-03T18:36:50;14.00;99.90
9845;DHT22;4961;50.782;6.080;2022-10-03T18:39:23;13.90;99.90
9845;DHT22;4961;50.782;6.080;2022-10-03T18:41:56;13.90;99.90
9845;DHT22;4961;50.782;6.080;2022-10-03T18:44:29;13.90;99.90
9845;DHT22;4961;50.782;6.080;2022-10-03T18:47:15;13.90;99.90
9845;DHT22;4961;50.782;6.080;2022-10-03T18:49:51;13.90;99.90
9845;DHT22;4961;50.782;6.080;2022-10-03T18:52:26;13.90;99.90
9845;DHT22;4961;50.782;6.080;2022-10-03T18:55:00;13.80;99.90
9845;DHT22;4961;50.782;6.080;2022-10-03T18:57:34;13.90;99.90
9845;DHT22;4961;50.782;6.080;2022-10-03T19:00:05;13.80;99.90
9845;DHT22;4961;50.782;6.080;2022-10-03T19:02:37;13.80;99.90
9845;DHT22;4961;50.782;6.080;2022-10-03T19:05:12;13.80;99.90
9845;DHT22;4961;50.782;6.080;2022-10-03T19:07:48;13.80;99.90
9845;DHT22;4961;50.782;6.080;2022-10-03T19:10:28;13.80;99.90
9845;DHT22;4961;50.782;6.080;2022-10-03T19:13:03;13.80;99.90
9845;DHT22;4961;50.782;6.080;2022-10-03T19:15:42;13.70;99.90
9845;DHT22;4961;50.782;6.080;2022-10-03T19:18:21;13.80;99.90
9845;DHT22;4961;50.782;6.080;2022-10-03T19:20:54;13.80;99.90
9845;DHT22;4961;50.782;6.080;2022-10-03T19:23:27;13.70;99.90
9845;DHT22;4961;50.782;6.080;2022-10-03T19:26:01;13.70;99.90
9845;DHT22;4961;50.782;6.080;2022-10-03T19:28:34;13.60;99.90
9845;DHT22;4961;50.782;6.080;2022-10-03T19:31:06;13.60;99.90
9845;DHT22;4961;50.782;6.080;2022-10-03T19:33:43;13.60;99.90
9845;DHT22;4961;50.782;6.080;2022-10-03T19:36:16;13.60;99.90
9845;DHT22;4961;50.782;6.080;2022-10-03T19:38:48;13.50;99.90
9845;DHT22;4961;50.782;6.080;2022-10-03T19:41:26;13.50;99.90
9845;DHT22;4961;50.782;6.080;2022-10-03T19:44:01;13.50;99.90
9845;DHT22;4961;50.782;6.080;2022-10-03T19:46:38;13.50;99.90
9845;DHT22;4961;50.782;6.080;2022-10-03T19:49:29;13.50;99.90
9845;DHT22;4961;50.782;6.080;2022-10-03T19:52:12;13.50;99.90
9845;DHT22;4961;50.782;6.080;2022-10-03T19:54:52;13.40;99.90
9845;DHT22;4961;50.782;6.080;2022-10-03T19:57:25;13.40;99.90
9845;DHT22;4961;50.782;6.080;2022-10-03T19:59:56;13.40;99.90
9845;DHT22;4961;50.782;6.080;2022-10-03T20:02:27;13.30;99.90
9845;DHT22;4961;50.782;6.080;2022-10-03T20:04:56;13.30;99.90
9845;DHT22;4961;50.782;6.080;2022-10-03T20:07:38;13.30;99.90
9845;DHT22;4961;50.782;6.080;2022-10-03T20:10:21;13.30;99.90
9845;DHT22;4961;50.782;6.080;2022-10-03T20:12:51;13.30;99.90
9845;DHT22;4961;50.782;6.080;2022-10-03T20:15:22;13.20;99.90
9845;DHT22;4961;50.782;6.080;2022-10-03T20:17:59;13.20;99.90
9845;DHT22;4961;50.782;6.080;2022-10-03T20:20:30;13.20;99.90
9845;DHT22;4961;50.782;6.080;2022-10-03T20:23:03;13.20;99.90
9845;DHT22;4961;50.782;6.080;2022-10-03T20:25:36;13.20;99.90
9845;DHT22;4961;50.782;6.080;2022-10-03T20:28:07;13.20;99.90
9845;DHT22;4961;50.782;6.080;2022-10-03T20:30:45;13.20;99.90
9845;DHT22;4961;50.782;6.080;2022-10-03T20:33:17;13.20;99.90
9845;DHT22;4961;50.782;6.080;2022-10-03T20:35:52;13.20;99.90
9845;DHT22;4961;50.782;6.080;2022-10-03T20:38:30;13.20;99.90
9845;DHT22;4961;50.782;6.080;2022-10-03T20:41:06;13.10;99.90
9845;DHT22;4961;50.782;6.080;2022-10-03T20:43:40;13.10;99.90
9845;DHT22;4961;50.782;6.080;2022-10-03T20:46:21;13.00;99.90
9845;DHT22;4961;50.782;6.080;2022-10-03T20:49:12;13.00;99.90